Terminal Aerodrome Forecast
Issued by NWS Cleveland, OH

Home | Current Version | Previous Version | Text Only | Print | Product List | Glossary On
Versions: 1 2 3 4 5 6 7 8 9 10 11 12 13 14 15 16 17 18
903
FTUS41 KCLE 161457 AAA
TAFMFD
TAF AMD
KMFD 161457Z 1615/1712 31010KT P6SM SCT025 BKN040
      TEMPO 1615/1617 BKN015 OVC025
     FM162000 32006KT P6SM SCT050
     FM170100 18003KT P6SM SCT200=

USA.gov is the U.S. government's official web portal to all federal, state and local government web resources and services.